Time;durP1;ratioP1;P1;durP2;ratioP2;P2;SDS_P1;SDS_P2;PMS_P1;PMS_P2;Temp;Humidity;BMP_temperature;BMP_pressure;BME280_temperature;BME280_humidity;BME280_pressure;Samples;Min_cycle;Max_cycle;Signal;HPM_P1;HPM_P2
2021/01/13 00:00:03;;;;;;;;;;;;;;;18.02;65.33;100215.09;5096853;28;1955;-66
2021/01/13 00:02:29;;;;;;;;;;;;;;;18.04;65.30;100226.50;5096792;28;1712;-63
2021/01/13 00:04:54;;;;;;;;;;;;;;;18.00;65.00;100228.63;5079060;28;1594;-62
2021/01/13 00:07:19;;;;;;;;;;;;;;;17.99;65.81;100223.44;5077963;28;1677;-66
2021/01/13 00:09:45;;;;;;;;;;;;;;;17.97;65.80;100228.09;5096850;28;1719;-66
2021/01/13 00:12:10;;;;;;;;;;;;;;;17.98;65.88;100229.75;5096299;28;1701;-62
2021/01/13 00:14:37;;;;;;;;;;;;;;;17.93;66.31;100226.69;5096725;28;1578;-66
2021/01/13 00:17:03;;;;;;;;;;;;;;;17.95;66.46;100244.28;5096464;28;1570;-61
2021/01/13 00:19:29;;;;;;;;;;;;;;;17.93;65.65;100250.75;5078279;28;1909;-62
2021/01/13 00:21:55;;;;;;;;;;;;;;;17.88;66.63;100235.94;5078805;28;1637;-66
2021/01/13 00:24:21;;;;;;;;;;;;;;;17.90;66.14;100243.84;5096349;28;1681;-62
2021/01/13 00:26:47;;;;;;;;;;;;;;;17.88;65.92;100246.66;5096684;28;1559;-62
2021/01/13 00:29:12;;;;;;;;;;;;;;;17.87;66.26;100250.31;5096316;28;1856;-62
2021/01/13 00:31:38;;;;;;;;;;;;;;;17.87;66.00;100250.31;5078360;28;1602;-66
2021/01/13 00:34:05;;;;;;;;;;;;;;;17.87;66.45;100242.31;5078431;28;1622;-62
2021/01/13 00:36:30;;;;;;;;;;;;;;;17.84;65.61;100245.25;5088630;28;1641;-66
2021/01/13 00:38:56;;;;;;;;;;;;;;;17.84;65.80;100245.25;5096579;28;1649;-66
2021/01/13 00:41:21;;;;;;;;;;;;;;;17.86;66.32;100242.44;5078127;28;1956;-66
2021/01/13 00:43:49;;;;;;;;;;;;;;;17.79;66.57;100239.47;5095864;28;1689;-66
2021/01/13 00:46:15;;;;;;;;;;;;;;;17.80;66.36;100238.44;5095915;28;1693;-62
2021/01/13 00:48:40;;;;;;;;;;;;;;;17.81;66.27;100244.66;5096193;28;1578;-62
2021/01/13 00:51:05;;;;;;;;;;;;;;;17.80;66.15;100238.44;5077970;28;1642;-62
2021/01/13 00:53:31;;;;;;;;;;;;;;;17.78;66.47;100235.06;5095799;28;1825;-62
2021/01/13 00:55:56;;;;;;;;;;;;;;;17.78;66.11;100229.72;5096032;28;1780;-62
2021/01/13 00:58:23;;;;;;;;;;;;;;;17.78;66.20;100226.22;5095513;28;1776;-61
2021/01/13 01:00:48;;;;;;;;;;;;;;;17.79;65.63;100230.59;5095910;28;1964;-66
2021/01/13 01:03:14;;;;;;;;;;;;;;;17.77;66.48;100222.72;5095498;28;1666;-62
2021/01/13 01:05:39;;;;;;;;;;;;;;;17.77;66.42;100224.53;5095538;28;1756;-61
2021/01/13 01:08:04;;;;;;;;;;;;;;;17.75;66.04;100229.19;5077610;28;1693;-66
2021/01/13 01:10:31;;;;;;;;;;;;;;;17.70;65.44;100218.88;5095364;28;1713;-62
2021/01/13 01:12:56;;;;;;;;;;;;;;;17.73;66.08;100233.84;5077887;28;1684;-62
2021/01/13 01:15:22;;;;;;;;;;;;;;;17.71;66.45;100236.63;5095237;28;1677;-62
2021/01/13 01:17:47;;;;;;;;;;;;;;;17.70;65.79;100229.59;5090427;28;1561;-66
2021/01/13 01:20:13;;;;;;;;;;;;;;;17.67;65.85;100216.50;5077154;28;2012;-62
2021/01/13 01:22:50;;;;;;;;;;;;;;;17.64;65.85;100219.47;5095460;28;1716;-61
2021/01/13 01:25:16;;;;;;;;;;;;;;;17.63;66.22;100225.81;5095111;28;1669;-62
2021/01/13 01:27:41;;;;;;;;;;;;;;;17.63;66.40;100212.44;5095118;28;1646;-62
2021/01/13 01:30:07;;;;;;;;;;;;;;;17.61;66.04;100217.91;5077197;28;1721;-61
2021/01/13 01:32:32;;;;;;;;;;;;;;;17.64;66.33;100224.81;5094323;28;1578;-61
2021/01/13 01:34:57;;;;;;;;;;;;;;;17.59;66.30;100219.06;5095220;28;1649;-66
2021/01/13 01:37:23;;;;;;;;;;;;;;;17.58;66.24;100217.34;5094983;28;1637;-61
2021/01/13 01:39:48;;;;;;;;;;;;;;;17.60;66.46;100208.19;5077072;28;1894;-66
2021/01/13 01:42:16;;;;;;;;;;;;;;;17.63;66.41;100215.94;5094848;28;1678;-62
2021/01/13 01:44:42;;;;;;;;;;;;;;;17.61;66.19;100214.41;5073757;28;1599;-62
2021/01/13 01:47:08;;;;;;;;;;;;;;;17.58;66.41;100204.81;5074378;28;1599;-64
2021/01/13 01:49:36;;;;;;;;;;;;;;;17.59;65.68;100203.00;5076897;28;1650;-62
2021/01/13 01:52:10;;;;;;;;;;;;;;;17.57;65.50;100183.59;5076969;28;1646;-66
2021/01/13 01:54:40;;;;;;;;;;;;;;;17.59;65.38;100209.19;5088852;28;1624;-66
2021/01/13 01:57:11;;;;;;;;;;;;;;;17.56;65.39;100193.41;5093470;28;1625;-62
2021/01/13 01:59:39;;;;;;;;;;;;;;;17.58;66.26;100196.78;5074840;28;1961;-67
2021/01/13 02:02:08;;;;;;;;;;;;;;;17.59;68.34;100194.97;5094380;28;1674;-66
2021/01/13 02:04:34;;;;;;;;;;;;;;;17.60;68.22;100194.81;5072425;28;1622;-62
2021/01/13 02:07:19;;;;;;;;;;;;;;;17.61;68.29;100190.34;5090784;28;1638;-66
2021/01/13 02:09:45;;;;;;;;;;;;;;;17.61;67.95;100185.00;5094248;28;1725;-66
2021/01/13 02:12:11;;;;;;;;;;;;;;;17.60;68.72;100183.28;5076292;28;1670;-66
2021/01/13 02:14:40;;;;;;;;;;;;;;;17.64;68.55;100182.03;5094735;28;1665;-66
2021/01/13 02:17:06;;;;;;;;;;;;;;;17.64;68.79;100168.66;5094630;28;1426;-66
2021/01/13 02:19:47;;;;;;;;;;;;;;;17.61;67.61;100158.25;5094073;28;1925;-62
2021/01/13 02:22:14;;;;;;;;;;;;;;;17.59;68.55;100154.88;5075128;28;1458;-66
2021/01/13 02:24:58;;;;;;;;;;;;;;;17.61;67.40;100174.31;5093392;28;1572;-66
2021/01/13 02:27:41;;;;;;;;;;;;;;;17.57;68.21;100170.22;5094162;28;1529;-61
2021/01/13 02:30:08;;;;;;;;;;;;;;;17.54;68.07;100165.97;5073705;28;1474;-61
2021/01/13 02:32:36;;;;;;;;;;;;;;;17.54;67.64;100167.81;5093800;28;1561;-61
2021/01/13 02:35:08;;;;;;;;;;;;;;;17.54;67.61;100173.16;5093989;28;1529;-66
2021/01/13 02:37:45;;;;;;;;;;;;;;;17.47;67.30;100176.41;5094147;28;1557;-61
2021/01/13 02:40:14;;;;;;;;;;;;;;;17.50;67.61;100178.78;5075989;28;1945;-62
2021/01/13 02:42:59;;;;;;;;;;;;;;;17.45;66.99;100170.34;5094568;28;1438;-62
2021/01/13 02:45:26;;;;;;;;;;;;;;;17.46;67.51;100171.19;5093446;28;1481;-61
2021/01/13 02:47:57;;;;;;;;;;;;;;;17.46;67.01;100166.69;5076145;28;1490;-62
2021/01/13 02:50:24;;;;;;;;;;;;;;;17.47;66.58;100164.88;5075869;28;1474;-65
2021/01/13 02:53:08;;;;;;;;;;;;;;;17.47;67.03;100162.19;5094174;28;1626;-62
2021/01/13 02:55:39;;;;;;;;;;;;;;;17.46;66.75;100158.66;5092158;28;1540;-61
2021/01/13 02:58:06;;;;;;;;;;;;;;;17.48;67.13;100162.03;5073131;28;1570;-61
2021/01/13 03:03:08;;;;;;;;;;;;;;;17.45;66.94;100158.81;5069633;28;1471;-47
2021/01/13 03:05:33;;;;;;;;;;;;;;;17.44;66.74;100168.66;5056249;28;1403;-48
2021/01/13 03:07:59;;;;;;;;;;;;;;;17.44;66.35;100157.13;5073260;28;1641;-48
2021/01/13 03:10:26;;;;;;;;;;;;;;;17.41;66.52;100158.25;5067093;22;3600;-66
2021/01/13 03:13:01;;;;;;;;;;;;;;;17.39;65.81;100154.88;5064497;28;1369;-61
2021/01/13 03:15:30;;;;;;;;;;;;;;;17.40;66.37;100161.88;5073182;28;1487;-66
2021/01/13 03:18:14;;;;;;;;;;;;;;;17.38;66.23;100163.03;5056028;28;1466;-61
2021/01/13 03:20:58;;;;;;;;;;;;;;;17.41;66.12;100166.28;5067364;28;1968;-66
2021/01/13 03:23:23;;;;;;;;;;;;;;;17.41;66.79;100174.28;5073343;28;1580;-61
2021/01/13 03:25:52;;;;;;;;;;;;;;;17.41;66.37;100179.63;5073563;28;1538;-66
2021/01/13 03:28:18;;;;;;;;;;;;;;;17.38;66.52;100185.25;5075494;28;1663;-61
2021/01/13 03:30:53;;;;;;;;;;;;;;;17.40;65.44;100175.25;5077219;28;1558;-66
2021/01/13 03:33:36;;;;;;;;;;;;;;;17.41;65.84;100176.97;5059377;28;1498;-62
2021/01/13 03:36:05;;;;;;;;;;;;;;;17.38;65.82;100169.19;5076667;28;1537;-61
2021/01/13 03:38:31;;;;;;;;;;;;;;;17.44;67.61;100184.69;5076651;28;1503;-65
2021/01/13 03:41:02;;;;;;;;;;;;;;;17.44;69.40;100167.81;5058808;28;1937;-61
2021/01/13 03:43:33;;;;;;;;;;;;;;;17.40;69.31;100171.75;5076966;28;1537;-66
2021/01/13 03:46:02;;;;;;;;;;;;;;;17.42;69.55;100175.97;5077452;28;1542;-66
2021/01/13 03:48:39;;;;;;;;;;;;;;;17.40;69.46;100167.22;5059546;28;1408;-61
2021/01/13 03:51:05;;;;;;;;;;;;;;;17.42;69.51;100185.81;5077085;28;1537;-62
2021/01/13 03:53:39;;;;;;;;;;;;;;;17.39;68.93;100173.59;5077049;28;1388;-61
2021/01/13 03:56:05;;;;;;;;;;;;;;;17.38;69.04;100163.84;5076986;28;1461;-61
2021/01/13 03:58:30;;;;;;;;;;;;;;;17.39;68.77;100160.22;5076606;28;1360;-66
2021/01/13 04:01:00;;;;;;;;;;;;;;;17.43;68.57;100171.47;5076396;28;1890;-66
2021/01/13 04:03:27;;;;;;;;;;;;;;;17.40;68.44;100172.59;5077446;28;1574;-67
2021/01/13 04:06:08;;;;;;;;;;;;;;;17.41;68.08;100160.09;5078692;28;1475;-63
2021/01/13 04:08:41;;;;;;;;;;;;;;;17.33;68.34;100150.09;5078506;28;1347;-66
2021/01/13 04:11:17;;;;;;;;;;;;;;;17.32;67.75;100152.91;5096538;28;1482;-67
2021/01/13 04:13:47;;;;;;;;;;;;;;;17.27;68.07;100159.50;5097195;28;1481;-61
2021/01/13 04:16:13;;;;;;;;;;;;;;;17.24;68.69;100150.91;5096734;28;1556;-61
2021/01/13 04:18:39;;;;;;;;;;;;;;;17.22;68.21;100160.91;5079039;28;1351;-61
2021/01/13 04:21:06;;;;;;;;;;;;;;;17.21;67.04;100138.69;5096409;28;1934;-64
2021/01/13 04:23:32;;;;;;;;;;;;;;;17.20;67.13;100165.53;5092498;28;1430;-66
2021/01/13 04:25:57;;;;;;;;;;;;;;;17.19;67.10;100155.81;5096590;28;1462;-61
2021/01/13 04:28:23;;;;;;;;;;;;;;;17.18;67.66;100167.50;5084861;28;1426;-61
2021/01/13 04:30:48;;;;;;;;;;;;;;;17.19;67.47;100155.81;5096321;28;1581;-66
2021/01/13 04:33:14;;;;;;;;;;;;;;;17.17;66.57;100171.13;5081279;28;1339;-66
2021/01/13 04:35:39;;;;;;;;;;;;;;;17.17;66.32;100164.00;5096343;28;1486;-61
2021/01/13 04:38:08;;;;;;;;;;;;;;;17.18;66.33;100151.47;5095592;28;1466;-61
2021/01/13 04:40:40;;;;;;;;;;;;;;;17.18;65.58;100140.78;5095795;28;1894;-61
2021/01/13 04:43:10;;;;;;;;;;;;;;;17.18;66.16;100159.50;5096102;28;1403;-66
2021/01/13 04:45:42;;;;;;;;;;;;;;;17.15;65.34;100141.03;5074858;28;1426;-61
2021/01/13 04:48:09;;;;;;;;;;;;;;;17.15;65.23;100144.59;5075803;28;1442;-66
2021/01/13 04:50:36;;;;;;;;;;;;;;;17.19;65.61;100142.47;5082131;28;1418;-61
2021/01/13 04:53:06;;;;;;;;;;;;;;;17.14;65.32;100132.19;5095948;28;1461;-66
2021/01/13 04:55:42;;;;;;;;;;;;;;;17.17;66.33;100147.97;5088569;28;1499;-66
2021/01/13 04:58:27;;;;;;;;;;;;;;;17.14;65.55;100144.72;5074985;28;1476;-61
2021/01/13 05:00:52;;;;;;;;;;;;;;;17.11;65.06;100159.22;5092388;28;1889;-66
2021/01/13 05:03:23;;;;;;;;;;;;;;;17.10;65.27;100153.00;5095661;28;1525;-61
2021/01/13 05:05:50;;;;;;;;;;;;;;;17.13;65.70;100154.56;5074400;28;1402;-61
2021/01/13 05:08:24;;;;;;;;;;;;;;;17.12;64.85;100152.03;5094209;28;1498;-66
2021/01/13 05:10:52;;;;;;;;;;;;;;;17.13;65.67;100173.28;5083753;28;1425;-61
2021/01/13 05:13:17;;;;;;;;;;;;;;;17.08;64.39;100156.78;5075035;28;1449;-66
2021/01/13 05:15:55;;;;;;;;;;;;;;;17.10;64.77;100176.19;5075409;28;1453;-66
2021/01/13 05:18:40;;;;;;;;;;;;;;;17.08;64.63;100173.66;5074422;28;1467;-61
2021/01/13 05:21:15;;;;;;;;;;;;;;;17.22;64.59;100182.28;5073372;28;1913;-61
2021/01/13 05:23:43;;;;;;;;;;;;;;;17.32;63.96;100185.78;5074088;28;1375;-67
2021/01/13 05:26:15;;;;;;;;;;;;;;;17.29;65.05;100173.56;5075018;28;1469;-66
2021/01/13 05:28:51;;;;;;;;;;;;;;;17.26;64.98;100181.00;5074814;28;1497;-66
2021/01/13 05:31:23;;;;;;;;;;;;;;;17.30;64.49;100180.59;5073056;28;1450;-66
2021/01/13 05:33:49;;;;;;;;;;;;;;;17.38;64.62;100181.72;5074487;28;1486;-72
2021/01/13 05:36:16;;;;;;;;;;;;;;;17.36;64.50;100187.22;5068268;28;11737;-66
2021/01/13 05:39:01;;;;;;;;;;;;;;;17.41;65.31;100187.66;5074300;28;1422;-66
2021/01/13 05:41:26;;;;;;;;;;;;;;;17.45;65.03;100177.53;5074246;28;1902;-61
2021/01/13 05:43:52;;;;;;;;;;;;;;;17.40;64.62;100199.31;5074160;28;1319;-61
2021/01/13 05:46:18;;;;;;;;;;;;;;;17.34;65.60;100199.03;5073246;28;1418;-61
2021/01/13 05:48:47;;;;;;;;;;;;;;;17.34;64.44;100194.53;5085641;28;1596;-70
2021/01/13 05:51:12;;;;;;;;;;;;;;;17.33;64.02;100195.53;5073682;28;1421;-61
2021/01/13 05:53:38;;;;;;;;;;;;;;;17.32;64.63;100195.66;5073699;28;1525;-67
2021/01/13 05:56:04;;;;;;;;;;;;;;;17.32;65.53;100195.66;5074269;28;1586;-67
2021/01/13 05:58:29;;;;;;;;;;;;;;;17.27;64.85;100198.75;4718013;28;10000591;-66
2021/01/13 06:00:56;;;;;;;;;;;;;;;17.32;64.53;100196.50;5059177;28;1929;-62
2021/01/13 06:03:23;;;;;;;;;;;;;;;17.27;65.39;100204.09;5064486;28;1445;-67
2021/01/13 06:05:50;;;;;;;;;;;;;;;17.30;66.02;100203.81;5064705;28;1592;-67
2021/01/13 06:08:15;;;;;;;;;;;;;;;17.26;66.01;100195.22;5072686;28;1462;-66
2021/01/13 06:10:40;;;;;;;;;;;;;;;17.25;65.09;100200.72;5064732;28;1227;-62
2021/01/13 06:13:06;;;;;;;;;;;;;;;17.20;66.06;100205.63;5079365;28;1661;-67
2021/01/13 06:15:33;;;;;;;;;;;;;;;17.19;65.30;100212.78;5074787;28;1423;-61
2021/01/13 06:17:59;;;;;;;;;;;;;;;17.20;65.22;100213.63;5079660;28;1341;-67
2021/01/13 06:20:25;;;;;;;;;;;;;;;17.22;65.13;100211.66;5069174;28;1909;-63
2021/01/13 06:22:52;;;;;;;;;;;;;;;17.21;65.61;100209.97;5081271;28;1454;-68
2021/01/13 06:25:23;;;;;;;;;;;;;;;17.23;65.83;100213.34;5066029;28;1197;-65
2021/01/13 06:27:58;;;;;;;;;;;;;;;17.23;65.85;100208.00;5085621;28;1126;-65
2021/01/13 06:30:49;;;;;;;;;;;;;;;17.21;66.45;100208.16;5078271;28;1599;-63
2021/01/13 06:33:18;;;;;;;;;;;;;;;17.29;66.10;100215.50;5061621;28;1282;-67
2021/01/13 06:35:43;;;;;;;;;;;;;;;17.24;65.57;100215.88;5066726;28;1668;-65
2021/01/13 06:38:24;;;;;;;;;;;;;;;17.21;65.78;100215.31;5079566;28;1542;-63
2021/01/13 06:40:59;;;;;;;;;;;;;;;17.23;66.10;100213.34;5079941;28;1957;-70
2021/01/13 06:43:25;;;;;;;;;;;;;;;17.30;65.52;100227.84;5077124;28;1496;-64
2021/01/13 06:45:50;;;;;;;;;;;;;;;17.33;65.14;100216.91;5079413;28;1431;-72
2021/01/13 06:48:21;;;;;;;;;;;;;;;17.30;65.07;100214.50;5081999;28;1120;-66
2021/01/13 06:50:46;;;;;;;;;;;;;;;17.28;65.51;100229.81;5081812;28;1442;-62
2021/01/13 06:53:12;;;;;;;;;;;;;;;17.27;65.84;100220.97;5081097;28;1430;-62
2021/01/13 06:55:38;;;;;;;;;;;;;;;17.22;65.45;100222.34;5086349;28;1446;-62
2021/01/13 06:58:14;;;;;;;;;;;;;;;17.18;66.25;100210.25;5063183;28;2246;-61
2021/01/13 07:00:40;;;;;;;;;;;;;;;17.15;66.31;100206.03;5081416;28;1963;-61
2021/01/13 07:03:30;;;;;;;;;;;;;;;17.14;65.35;100209.66;5086063;28;1727;-65
2021/01/13 07:05:56;;;;;;;;;;;;;;;17.15;65.37;100215.84;5067500;28;1241;-61
2021/01/13 07:08:22;;;;;;;;;;;;;;;17.15;66.21;100213.19;5088768;28;1420;-61
2021/01/13 07:10:48;;;;;;;;;;;;;;;17.21;66.33;100220.66;5087576;28;1533;-72
2021/01/13 07:13:18;;;;;;;;;;;;;;;17.19;66.19;100222.63;5087012;28;1537;-66
2021/01/13 07:15:44;;;;;;;;;;;;;;;17.20;65.30;100219.81;5089096;28;1280;-67
2021/01/13 07:18:10;;;;;;;;;;;;;;;17.19;64.90;100226.16;5096592;28;1347;-63
2021/01/13 07:20:41;;;;;;;;;;;;;;;17.18;65.13;100216.44;5095385;28;1913;-62
2021/01/13 07:23:10;;;;;;;;;;;;;;;17.17;65.37;100224.56;5096670;28;1419;-62
2021/01/13 07:25:45;;;;;;;;;;;;;;;17.16;66.23;100217.56;5096466;28;1301;-67
2021/01/13 07:28:11;;;;;;;;;;;;;;;17.27;65.75;100226.31;5093509;28;1380;-62
2021/01/13 07:30:37;;;;;;;;;;;;;;;17.46;64.91;100214.78;5096221;28;1402;-67
2021/01/13 07:33:08;;;;;;;;;;;;;;;17.69;64.56;100222.56;5096957;28;1582;-63
2021/01/13 07:35:35;;;;;;;;;;;;;;;17.83;63.63;100218.63;5102991;28;1534;-66
2021/01/13 07:38:06;;;;;;;;;;;;;;;17.94;63.34;100217.66;5097467;28;1565;-62
2021/01/13 07:40:33;;;;;;;;;;;;;;;18.05;62.89;100228.22;5096930;28;1885;-66
2021/01/13 07:43:02;;;;;;;;;;;;;;;18.13;62.75;100233.69;5097183;28;1759;-67
2021/01/13 07:45:28;;;;;;;;;;;;;;;18.22;62.84;100223.97;5096729;28;1523;-67
2021/01/13 07:48:09;;;;;;;;;;;;;;;18.29;62.82;100215.22;5097252;28;1735;-67
2021/01/13 07:50:44;;;;;;;;;;;;;;;18.41;62.08;100220.41;5085716;28;1692;-62
2021/01/13 07:53:11;;;;;;;;;;;;;;;18.52;62.06;100222.88;5093304;28;1649;-67
2021/01/13 07:55:43;;;;;;;;;;;;;;;18.63;61.82;100229.91;5093490;28;1514;-67
2021/01/13 07:58:18;;;;;;;;;;;;;;;18.77;61.31;100228.59;5094062;28;1553;-67
2021/01/13 08:00:56;;;;;;;;;;;;;;;18.78;61.34;100214.19;5082296;28;1956;-67
2021/01/13 08:03:40;;;;;;;;;;;;;;;18.90;61.16;100210.41;5093013;28;1689;-62
2021/01/13 08:06:24;;;;;;;;;;;;;;;19.10;60.36;100204.91;5094090;28;1589;-62
2021/01/13 08:09:04;;;;;;;;;;;;;;;19.13;60.29;100218.88;5103670;28;1589;-62
2021/01/13 08:11:49;;;;;;;;;;;;;;;19.18;60.54;100213.03;5096411;28;1664;-67
2021/01/13 08:14:32;;;;;;;;;;;;;;;19.13;60.22;100216.19;5095179;28;1692;-67
2021/01/13 08:17:18;;;;;;;;;;;;;;;19.20;60.21;100214.59;5096911;28;1629;-63
2021/01/13 08:20:04;;;;;;;;;;;;;;;19.18;60.29;100205.00;5095765;28;1918;-67
2021/01/13 08:22:29;;;;;;;;;;;;;;;19.14;60.37;100217.03;5092710;28;1721;-67
2021/01/13 08:25:01;;;;;;;;;;;;;;;19.10;60.40;100211.13;5078635;28;1364;-67
2021/01/13 08:27:27;;;;;;;;;;;;;;;19.07;60.36;100208.75;5095884;28;1394;-67
2021/01/13 08:29:57;;;;;;;;;;;;;;;18.98;60.95;100215.84;5096296;28;1711;-62
2021/01/13 08:32:29;;;;;;;;;;;;;;;18.95;60.92;100229.53;5090156;28;1621;-64
2021/01/13 08:35:01;;;;;;;;;;;;;;;18.92;60.64;100213.78;5086497;28;1538;-66
2021/01/13 08:37:30;;;;;;;;;;;;;;;18.83;60.98;100225.38;5096194;28;1644;-63
2021/01/13 08:39:56;;;;;;;;;;;;;;;18.79;61.17;100229.31;5096537;28;1886;-63
2021/01/13 08:42:26;;;;;;;;;;;;;;;18.72;61.12;100228.19;5096075;28;1759;-67
2021/01/13 08:44:55;;;;;;;;;;;;;;;18.63;61.62;100222.72;5096924;28;1539;-63
2021/01/13 08:47:21;;;;;;;;;;;;;;;18.61;61.78;100234.56;5096725;28;1479;-63
2021/01/13 08:49:47;;;;;;;;;;;;;;;18.56;61.84;100228.81;5087053;28;1534;-63
2021/01/13 08:52:20;;;;;;;;;;;;;;;18.54;62.00;100231.63;5095250;28;1677;-63
2021/01/13 08:55:05;;;;;;;;;;;;;;;18.51;61.94;100229.25;5079636;28;1756;-67
2021/01/13 08:57:49;;;;;;;;;;;;;;;18.45;61.82;100222.63;5095837;28;1605;-67
2021/01/13 09:00:15;;;;;;;;;;;;;;;18.43;62.04;100219.25;5068215;28;1886;-67
2021/01/13 09:02:57;;;;;;;;;;;;;;;18.40;61.91;100232.97;5078489;28;1806;-66
2021/01/13 09:05:33;;;;;;;;;;;;;;;18.34;62.23;100225.47;5095115;28;1774;-63
2021/01/13 09:07:59;;;;;;;;;;;;;;;18.35;62.20;100223.66;5093363;28;1658;-67
2021/01/13 09:10:45;;;;;;;;;;;;;;;18.33;61.75;100233.66;5095547;28;1687;-66
2021/01/13 09:13:29;;;;;;;;;;;;;;;18.34;62.03;100221.97;5090630;28;1693;-62
2021/01/13 09:15:55;;;;;;;;;;;;;;;18.38;61.70;100226.03;5083254;28;1411;-68
2021/01/13 09:18:23;;;;;;;;;;;;;;;18.41;61.72;100215.06;5094896;28;1740;-68
2021/01/13 09:20:49;;;;;;;;;;;;;;;18.33;61.64;100231.00;5095071;28;1961;-60
2021/01/13 09:23:22;;;;;;;;;;;;;;;18.29;62.15;100215.22;5094949;28;1755;-67
2021/01/13 09:25:49;;;;;;;;;;;;;;;18.28;62.55;100210.00;5078214;28;1546;-67
2021/01/13 09:28:16;;;;;;;;;;;;;;;18.26;62.63;100211.97;5095545;28;1732;-61
2021/01/13 09:30:42;;;;;;;;;;;;;;;18.23;62.70;100222.97;5095934;28;1546;-61
2021/01/13 09:33:18;;;;;;;;;;;;;;;18.32;62.72;100223.94;5074742;28;1503;-61
2021/01/13 09:35:43;;;;;;;;;;;;;;;18.30;62.19;100216.03;5058150;28;1184;-61
2021/01/13 09:38:13;;;;;;;;;;;;;;;18.29;62.48;100209.84;5058121;28;1299;-67
2021/01/13 09:40:59;;;;;;;;;;;;;;;18.29;63.52;100185.78;5076147;28;1878;-61
2021/01/13 09:43:26;;;;;;;;;;;;;;;18.32;63.16;100189.16;5057932;28;1166;-67
2021/01/13 09:45:56;;;;;;;;;;;;;;;18.36;63.58;100190.53;5069280;28;1444;-61
2021/01/13 09:48:22;;;;;;;;;;;;;;;18.40;63.49;100181.22;5095867;28;1616;-61
2021/01/13 09:50:57;;;;;;;;;;;;;;;18.42;63.46;100189.94;5095795;28;777;-61
2021/01/13 09:53:27;;;;;;;;;;;;;;;18.45;62.93;100170.94;5095311;28;1624;-61
2021/01/13 09:55:53;;;;;;;;;;;;;;;18.44;63.07;100177.25;5095614;28;1558;-62
2021/01/13 09:58:25;;;;;;;;;;;;;;;18.43;63.10;100176.44;5095565;28;1482;-61
2021/01/13 10:00:52;;;;;;;;;;;;;;;18.47;62.87;100169.78;5094208;28;1886;-67
2021/01/13 10:03:17;;;;;;;;;;;;;;;18.51;62.57;100183.72;5081918;28;1601;-67
2021/01/13 10:05:43;;;;;;;;;;;;;;;18.63;62.06;100169.16;5085870;28;1597;-61
2021/01/13 10:08:08;;;;;;;;;;;;;;;18.66;62.23;100163.53;4733857;28;10000483;-67
2021/01/13 10:10:34;;;;;;;;;;;;;;;18.59;63.08;100159.75;5090424;28;1453;-61
2021/01/13 10:12:59;;;;;;;;;;;;;;;18.57;62.73;100148.34;5090778;28;1779;-67
2021/01/13 10:15:25;;;;;;;;;;;;;;;18.61;62.93;100155.06;5090334;28;1661;-61
2021/01/13 10:17:50;;;;;;;;;;;;;;;18.59;62.94;100143.66;5090967;28;1574;-61
2021/01/13 10:20:17;;;;;;;;;;;;;;;18.63;62.95;100153.09;5090620;28;1918;-61
2021/01/13 10:22:43;;;;;;;;;;;;;;;18.63;62.76;100169.16;5091024;28;1463;-61
2021/01/13 10:25:09;;;;;;;;;;;;;;;18.61;62.95;100155.06;5091216;28;1060;-67
2021/01/13 10:27:44;;;;;;;;;;;;;;;18.61;62.88;100151.56;5091430;28;977;-61
2021/01/13 10:30:10;;;;;;;;;;;;;;;18.56;62.47;100152.03;5090738;28;1315;-61
2021/01/13 10:32:46;;;;;;;;;;;;;;;18.57;62.73;100156.38;5089225;28;1514;-67
2021/01/13 10:35:11;;;;;;;;;;;;;;;18.63;62.26;100145.06;5090038;28;1511;-62
2021/01/13 10:37:39;;;;;;;;;;;;;;;18.74;62.43;100137.81;5087538;28;1232;-61
2021/01/13 10:40:08;;;;;;;;;;;;;;;18.79;62.56;100156.97;5075056;28;1952;-68
2021/01/13 10:42:38;;;;;;;;;;;;;;;18.79;62.31;100151.63;5087669;28;1318;-61
2021/01/13 10:45:10;;;;;;;;;;;;;;;18.77;62.50;100145.56;5079589;28;1547;-61
2021/01/13 10:47:35;;;;;;;;;;;;;;;18.79;62.20;100140.91;5089685;28;1486;-67
2021/01/13 10:50:02;;;;;;;;;;;;;;;18.80;62.18;100159.53;5076633;28;1487;-67
2021/01/13 10:52:30;;;;;;;;;;;;;;;18.74;62.37;100125.28;5072734;28;1212;-66
2021/01/13 10:55:01;;;;;;;;;;;;;;;18.80;62.63;100129.22;5084176;28;1384;-67
2021/01/13 10:57:32;;;;;;;;;;;;;;;18.81;62.63;100130.91;5089550;28;1494;-61
2021/01/13 11:00:11;;;;;;;;;;;;;;;18.80;62.56;100137.25;5088288;28;1945;-61
2021/01/13 11:02:36;;;;;;;;;;;;;;;18.79;62.82;100132.88;5081384;28;1531;-61
2021/01/13 11:05:02;;;;;;;;;;;;;;;18.75;62.75;100118.09;5089797;28;1490;-61
2021/01/13 11:07:38;;;;;;;;;;;;;;;18.75;62.89;100115.41;5084487;28;2587;-67
2021/01/13 11:10:04;;;;;;;;;;;;;;;18.73;62.52;100112.03;4727165;28;10000429;-67
2021/01/13 11:12:30;;;;;;;;;;;;;;;18.72;63.03;100108.53;5086596;28;1291;-61
2021/01/13 11:14:55;;;;;;;;;;;;;;;18.66;62.67;100101.94;5088174;28;1419;-61
2021/01/13 11:17:25;;;;;;;;;;;;;;;18.67;63.02;100110.78;5078520;28;1554;-61
2021/01/13 11:19:53;;;;;;;;;;;;;;;18.63;62.83;100102.22;5093504;28;1910;-61
2021/01/13 11:22:30;;;;;;;;;;;;;;;18.61;63.14;100098.00;5069353;28;1313;-67
2021/01/13 11:24:57;;;;;;;;;;;;;;;18.60;62.80;100104.34;5086157;28;1307;-61
2021/01/13 11:27:23;;;;;;;;;;;;;;;18.58;63.13;100117.91;5097465;28;1537;-61
2021/01/13 11:29:52;;;;;;;;;;;;;;;18.58;62.80;100099.16;5089994;28;1446;-67
2021/01/13 11:32:19;;;;;;;;;;;;;;;18.54;63.12;100094.22;5089814;28;1542;-67
2021/01/13 11:34:45;;;;;;;;;;;;;;;18.55;62.91;100091.41;5089425;28;1368;-67
2021/01/13 11:37:17;;;;;;;;;;;;;;;18.56;62.74;100095.78;5090176;28;1240;-61
2021/01/13 11:39:53;;;;;;;;;;;;;;;18.53;63.00;100103.28;5090282;28;1483;-67
2021/01/13 11:42:33;;;;;;;;;;;;;;;18.55;63.13;100093.25;5089862;28;1483;-67
2021/01/13 11:45:04;;;;;;;;;;;;;;;18.57;63.24;100113.53;5083158;28;1079;-61
2021/01/13 11:47:34;;;;;;;;;;;;;;;18.60;62.36;100105.22;5090162;28;1032;-61
2021/01/13 11:50:02;;;;;;;;;;;;;;;18.65;62.08;100091.34;5093699;28;1372;-67
2021/01/13 11:52:31;;;;;;;;;;;;;;;18.72;62.20;100110.34;5078626;28;1314;-67
2021/01/13 11:54:57;;;;;;;;;;;;;;;18.61;63.13;100103.38;5094199;28;1060;-67
2021/01/13 11:57:36;;;;;;;;;;;;;;;18.64;62.75;100101.25;5075935;28;1269;-67
2021/01/13 12:00:07;;;;;;;;;;;;;;;18.66;63.00;100095.72;5094262;28;1976;-61
2021/01/13 12:02:33;;;;;;;;;;;;;;;18.66;62.52;100101.06;5096602;28;1518;-67
2021/01/13 12:04:58;;;;;;;;;;;;;;;18.71;62.65;100100.63;5093587;28;1767;-61
2021/01/13 12:07:24;;;;;;;;;;;;;;;18.71;62.19;100092.59;5093133;28;1576;-65
2021/01/13 12:10:09;;;;;;;;;;;;;;;18.66;62.33;100093.91;5092712;28;2180;-66
2021/01/13 12:12:34;;;;;;;;;;;;;;;18.67;62.38;100089.38;5087820;28;1288;-67
2021/01/13 12:15:04;;;;;;;;;;;;;;;18.62;62.38;100103.22;5093022;28;1474;-60
2021/01/13 12:17:31;;;;;;;;;;;;;;;18.44;61.94;100092.47;5091890;28;1546;-67
2021/01/13 12:19:56;;;;;;;;;;;;;;;18.48;62.07;100101.88;5092811;28;1969;-61
2021/01/13 12:22:35;;;;;;;;;;;;;;;18.52;61.75;100083.66;5092924;28;1485;-67
2021/01/13 12:25:00;;;;;;;;;;;;;;;18.59;61.97;100098.16;5092100;28;1459;-60
2021/01/13 12:27:26;;;;;;;;;;;;;;;18.69;61.68;100096.25;5092629;28;1509;-68
2021/01/13 12:30:07;;;;;;;;;;;;;;;18.66;61.52;100112.63;5092399;28;1541;-60
2021/01/13 12:32:33;;;;;;;;;;;;;;;18.70;61.90;100105.13;5092836;28;1549;-67
2021/01/13 12:34:58;;;;;;;;;;;;;;;18.69;61.86;100096.25;5074988;28;1165;-67
2021/01/13 12:37:23;;;;;;;;;;;;;;;18.63;62.26;100102.22;5092740;28;1252;-69
2021/01/13 12:39:55;;;;;;;;;;;;;;;18.55;62.32;100094.09;5092502;28;1882;-62
2021/01/13 12:42:20;;;;;;;;;;;;;;;18.56;61.21;100089.56;5092029;28;1374;-70
2021/01/13 12:44:45;;;;;;;;;;;;;;;18.53;60.29;100096.06;5092566;28;1347;-64
2021/01/13 12:47:11;;;;;;;;;;;;;;;18.50;59.97;100093.69;5091941;28;1344;-64
2021/01/13 12:49:37;;;;;;;;;;;;;;;18.49;61.29;100100.03;5092317;28;1478;-64
2021/01/13 12:52:02;;;;;;;;;;;;;;;18.49;60.30;100106.22;5091674;28;1323;-64
2021/01/13 12:54:27;;;;;;;;;;;;;;;18.50;60.89;100085.66;5092292;28;1379;-63
2021/01/13 12:56:53;;;;;;;;;;;;;;;18.46;60.49;100097.66;5078586;28;1518;-65
2021/01/13 12:59:19;;;;;;;;;;;;;;;18.50;60.70;100096.34;5091036;28;1150;-64